createdAt,value
2024-05-09T00:00:35.809Z,9.69
2024-05-09T00:03:10.487Z,9.70
2024-05-09T00:05:38.593Z,9.72
2024-05-09T00:08:05.490Z,9.90
2024-05-09T00:10:36.719Z,9.94
2024-05-09T00:13:05.870Z,9.86
2024-05-09T00:15:33.477Z,9.78
2024-05-09T00:18:00.590Z,9.71
2024-05-09T00:20:35.304Z,9.82
2024-05-09T00:23:07.379Z,9.85
2024-05-09T00:25:34.595Z,9.88
2024-05-09T00:28:01.216Z,9.91
2024-05-09T00:30:33.788Z,9.87
2024-05-09T00:33:03.779Z,9.90
2024-05-09T00:35:30.919Z,9.88
2024-05-09T00:37:57.672Z,9.92
2024-05-09T00:40:34.753Z,9.92
2024-05-09T00:43:05.867Z,9.93
2024-05-09T00:45:33.513Z,9.89
2024-05-09T00:48:02.606Z,9.86
2024-05-09T00:50:35.737Z,9.94
2024-05-09T00:53:05.064Z,9.79
2024-05-09T00:55:31.886Z,9.81
2024-05-09T00:57:58.506Z,9.78
2024-05-09T01:00:31.668Z,9.76
2024-05-09T01:03:05.348Z,9.81
2024-05-09T01:05:32.564Z,9.77
2024-05-09T01:07:59.344Z,9.65
2024-05-09T01:10:33.520Z,9.68
2024-05-09T01:13:01.979Z,9.64
2024-05-09T01:15:28.595Z,9.48
2024-05-09T01:17:56.669Z,9.48
2024-05-09T01:20:32.109Z,9.40
2024-05-09T01:23:07.265Z,9.43
2024-05-09T01:25:34.017Z,9.48
2024-05-09T01:28:00.722Z,9.54
2024-05-09T01:30:33.970Z,9.60
2024-05-09T01:33:03.216Z,9.61
2024-05-09T01:35:30.022Z,9.56
2024-05-09T01:37:56.706Z,9.62
2024-05-09T01:40:33.296Z,9.64
2024-05-09T01:43:04.354Z,9.68
2024-05-09T01:45:30.938Z,9.71
2024-05-09T01:47:57.566Z,9.69
2024-05-09T01:50:35.828Z,9.68
2024-05-09T01:53:05.990Z,9.67
2024-05-09T01:55:32.582Z,9.69
2024-05-09T01:57:59.166Z,9.69
2024-05-09T02:00:36.889Z,9.67
2024-05-09T02:03:13.685Z,9.71
2024-05-09T02:05:43.162Z,9.68
2024-05-09T02:08:14.989Z,9.68
2024-05-09T02:10:41.797Z,9.64
2024-05-09T02:13:08.458Z,9.66
2024-05-09T02:15:35.254Z,9.54
2024-05-09T02:18:02.058Z,9.55
2024-05-09T02:20:35.199Z,9.61
2024-05-09T02:23:04.267Z,9.52
2024-05-09T02:25:31.429Z,9.56
2024-05-09T02:27:57.976Z,9.59
2024-05-09T02:30:31.161Z,9.55
2024-05-09T02:33:05.951Z,9.56
2024-05-09T02:35:32.995Z,9.56
2024-05-09T02:37:59.817Z,9.60
2024-05-09T02:40:35.485Z,9.62
2024-05-09T02:43:04.756Z,9.63
2024-05-09T02:45:31.315Z,9.60
2024-05-09T02:47:58.023Z,9.60
2024-05-09T02:50:33.504Z,9.57
2024-05-09T02:53:04.845Z,9.59
2024-05-09T02:55:31.416Z,9.64
2024-05-09T02:57:57.942Z,9.63
2024-05-09T03:00:34.167Z,9.59
2024-05-09T03:03:05.902Z,9.55
2024-05-09T03:05:32.645Z,9.46
2024-05-09T03:07:59.291Z,9.49
2024-05-09T03:10:28.947Z,9.52
2024-05-09T03:13:05.064Z,9.52
2024-05-09T03:15:33.118Z,9.57
2024-05-09T03:18:01.164Z,9.47
2024-05-09T03:20:33.526Z,9.49
2024-05-09T03:23:02.206Z,9.46
2024-05-09T03:25:29.081Z,9.44
2024-05-09T03:27:55.804Z,9.39
2024-05-09T03:30:31.263Z,9.46
2024-05-09T03:33:09.592Z,9.48
2024-05-09T03:35:36.411Z,9.37
2024-05-09T03:38:03.223Z,9.48
2024-05-09T03:40:31.100Z,9.48
2024-05-09T03:42:58.817Z,9.50
2024-05-09T03:45:25.711Z,9.55
2024-05-09T03:47:53.002Z,9.55
2024-05-09T03:50:29.536Z,9.55
2024-05-09T03:53:00.828Z,9.54
2024-05-09T03:55:27.838Z,9.57
2024-05-09T03:57:54.616Z,9.57
2024-05-09T04:00:30.567Z,9.65
2024-05-09T04:03:03.792Z,9.66
2024-05-09T04:05:31.432Z,9.69
2024-05-09T04:07:58.453Z,9.60
2024-05-09T04:10:32.416Z,9.64
2024-05-09T04:13:00.611Z,9.68
2024-05-09T04:15:27.329Z,9.72
2024-05-09T04:17:54.131Z,9.72
2024-05-09T04:20:32.832Z,9.77
2024-05-09T04:23:05.418Z,9.66
2024-05-09T04:25:32.554Z,9.66
2024-05-09T04:27:59.070Z,9.73
2024-05-09T04:30:34.669Z,9.78
2024-05-09T04:33:14.828Z,9.68
2024-05-09T04:35:42.836Z,9.88
2024-05-09T04:38:10.120Z,9.77
2024-05-09T04:40:37.684Z,9.86
2024-05-09T04:43:05.515Z,9.71
2024-05-09T04:45:32.433Z,9.87
2024-05-09T04:47:59.533Z,9.99
2024-05-09T04:50:35.423Z,10.07
2024-05-09T04:53:05.837Z,9.92
2024-05-09T04:55:33.167Z,10.00
2024-05-09T04:57:59.800Z,10.05
2024-05-09T05:00:34.641Z,10.05
2024-05-09T05:03:10.075Z,10.25
2024-05-09T05:05:41.140Z,10.40
2024-05-09T05:08:26.152Z,10.51
2024-05-09T05:10:52.968Z,10.54
2024-05-09T05:13:21.094Z,10.58
2024-05-09T05:15:49.448Z,10.71
2024-05-09T05:18:16.517Z,10.78
2024-05-09T05:20:43.524Z,10.97
2024-05-09T05:23:11.357Z,10.98
2024-05-09T05:25:38.276Z,11.06
2024-05-09T05:28:05.308Z,11.37
2024-05-09T05:30:34.727Z,11.90
2024-05-09T05:33:02.088Z,12.29
2024-05-09T05:35:28.948Z,12.81
2024-05-09T05:37:55.688Z,12.63
2024-05-09T05:40:28.668Z,12.77
2024-05-09T05:43:02.858Z,13.00
2024-05-09T05:45:29.403Z,12.92
2024-05-09T05:47:56.307Z,13.06
2024-05-09T05:50:28.090Z,13.04
2024-05-09T05:53:02.198Z,13.22
2024-05-09T05:55:28.987Z,13.11
2024-05-09T05:57:55.583Z,13.31
2024-05-09T06:00:29.720Z,13.02
2024-05-09T06:03:04.058Z,13.08
2024-05-09T06:05:30.751Z,13.12
2024-05-09T06:07:57.467Z,12.99
2024-05-09T06:10:29.661Z,12.89
2024-05-09T06:13:03.154Z,13.13
2024-05-09T06:15:29.676Z,13.05
2024-05-09T06:17:56.278Z,13.11
2024-05-09T06:20:31.771Z,12.88
2024-05-09T06:23:03.434Z,12.91
2024-05-09T06:25:30.255Z,12.94
2024-05-09T06:27:56.943Z,13.10
2024-05-09T06:30:30.410Z,13.24
2024-05-09T06:33:04.944Z,13.23
2024-05-09T06:35:31.885Z,13.41
2024-05-09T06:37:58.652Z,13.60
2024-05-09T06:40:29.854Z,13.74
2024-05-09T06:43:02.895Z,13.90
2024-05-09T06:45:29.520Z,13.98
2024-05-09T06:47:56.331Z,14.06
2024-05-09T06:50:28.259Z,13.99
2024-05-09T06:52:58.284Z,14.36
2024-05-09T06:55:25.076Z,14.55
2024-05-09T06:57:51.595Z,14.74
2024-05-09T07:00:26.877Z,14.83
2024-05-09T07:02:59.061Z,14.93
2024-05-09T07:05:26.838Z,14.98
2024-05-09T07:07:53.625Z,15.16
2024-05-09T07:10:28.484Z,15.06
2024-05-09T07:12:59.427Z,15.60
2024-05-09T07:15:25.976Z,15.74
2024-05-09T07:17:52.771Z,16.41
2024-05-09T07:20:27.485Z,16.48
2024-05-09T07:23:00.677Z,16.61
2024-05-09T07:25:27.270Z,16.67
2024-05-09T07:27:53.780Z,16.91
2024-05-09T07:30:27.638Z,16.82
2024-05-09T07:33:00.255Z,15.89
2024-05-09T07:35:27.512Z,15.71
2024-05-09T07:37:54.417Z,16.83
2024-05-09T07:40:31.723Z,16.72
2024-05-09T07:43:06.834Z,17.13
2024-05-09T07:52:23.428Z,16.61
2024-05-09T07:53:38.594Z,17.84
2024-05-09T07:56:07.511Z,18.00
2024-05-09T07:58:34.628Z,18.16
2024-05-09T08:01:02.892Z,18.84
2024-05-09T08:03:29.744Z,18.63
2024-05-09T08:05:56.494Z,19.06
2024-05-09T08:08:23.344Z,19.25
2024-05-09T08:10:50.450Z,18.94
2024-05-09T08:13:17.232Z,19.32
2024-05-09T08:15:43.981Z,19.02
2024-05-09T08:18:10.672Z,18.93
2024-05-09T08:20:41.383Z,19.27
2024-05-09T08:23:07.984Z,19.09
2024-05-09T08:25:34.630Z,18.71
2024-05-09T08:28:01.502Z,18.64
2024-05-09T08:30:33.785Z,18.42
2024-05-09T08:33:04.272Z,18.87
2024-05-09T08:35:32.007Z,17.98
2024-05-09T08:37:58.786Z,16.60
2024-05-09T08:40:33.316Z,17.20
2024-05-09T08:43:02.706Z,17.41
2024-05-09T08:45:29.808Z,17.59
2024-05-09T08:47:56.631Z,16.52
2024-05-09T08:50:32.210Z,16.19
2024-05-09T08:53:05.546Z,16.17
2024-05-09T08:55:32.551Z,16.05
2024-05-09T08:58:00.930Z,16.20
2024-05-09T09:00:35.844Z,16.87
2024-05-09T09:03:05.870Z,17.05
2024-05-09T09:05:34.746Z,16.99
2024-05-09T09:08:04.505Z,16.93
2024-05-09T09:10:32.525Z,17.07
2024-05-09T09:13:05.237Z,16.99
2024-05-09T09:15:32.366Z,17.24
2024-05-09T09:23:12.090Z,16.24
2024-05-09T09:25:42.052Z,15.92
2024-05-09T09:28:09.270Z,16.08
2024-05-09T09:30:43.014Z,15.84
2024-05-09T09:33:10.444Z,15.98
2024-05-09T09:35:39.254Z,15.95
2024-05-09T09:38:07.120Z,16.17
2024-05-09T09:40:37.267Z,16.52
2024-05-09T09:43:12.902Z,16.84
2024-05-09T09:45:40.096Z,16.87
2024-05-09T09:48:06.978Z,16.69
2024-05-09T09:50:35.304Z,16.25
2024-05-09T09:53:03.732Z,16.50
2024-05-09T09:55:31.527Z,16.64
2024-05-09T09:57:58.203Z,16.74
2024-05-09T10:00:32.370Z,16.70
2024-05-09T10:03:00.594Z,15.73
2024-05-09T10:05:28.303Z,16.25
2024-05-09T10:07:55.593Z,16.52
2024-05-09T10:10:32.041Z,16.12
2024-05-09T10:13:00.215Z,16.61
2024-05-09T10:15:27.116Z,16.87
2024-05-09T10:17:53.822Z,17.29
2024-05-09T10:20:24.734Z,17.75
2024-05-09T10:22:54.369Z,17.46
2024-05-09T10:25:21.130Z,17.97
2024-05-09T10:27:54.718Z,17.51
2024-05-09T10:32:56.766Z,17.92
2024-05-09T10:35:25.378Z,17.88
2024-05-09T10:37:52.963Z,18.09
2024-05-09T10:40:26.381Z,18.43
2024-05-09T10:43:01.960Z,18.72
2024-05-09T10:45:30.257Z,18.48
2024-05-09T10:47:56.972Z,18.35
2024-05-09T10:50:28.558Z,17.79
2024-05-09T10:52:58.691Z,17.82
2024-05-09T10:55:25.577Z,17.55
2024-05-09T10:57:52.218Z,17.21
2024-05-09T11:00:27.396Z,17.02
2024-05-09T11:02:59.791Z,17.38
2024-05-09T11:05:27.024Z,17.58
2024-05-09T11:07:53.850Z,17.73
2024-05-09T11:10:27.426Z,17.53
2024-05-09T11:12:58.517Z,17.88
2024-05-09T11:15:26.072Z,17.32
2024-05-09T11:17:52.814Z,17.27
2024-05-09T11:20:26.841Z,17.37
2024-05-09T11:22:57.741Z,17.09
2024-05-09T11:25:24.411Z,16.88
2024-05-09T11:27:51.160Z,17.15
2024-05-09T11:30:26.786Z,17.52
2024-05-09T11:32:58.755Z,17.64
2024-05-09T11:35:26.648Z,17.87
2024-05-09T11:37:53.263Z,18.37
2024-05-09T11:40:25.528Z,18.46
2024-05-09T11:42:58.655Z,17.83
2024-05-09T11:45:25.458Z,18.08
2024-05-09T11:47:52.431Z,18.08
2024-05-09T11:50:27.103Z,17.66
2024-05-09T11:52:57.055Z,17.36
2024-05-09T11:55:27.736Z,16.93
2024-05-09T11:57:55.599Z,17.82
2024-05-09T12:00:29.691Z,18.48
2024-05-09T12:03:05.346Z,18.34
2024-05-09T12:05:33.145Z,18.27
2024-05-09T12:08:00.718Z,18.51
2024-05-09T12:10:33.140Z,18.77
2024-05-09T12:13:02.681Z,18.73
2024-05-09T12:15:30.064Z,18.90
2024-05-09T12:17:59.071Z,18.80
2024-05-09T12:20:35.468Z,18.45
2024-05-09T12:23:05.212Z,18.84
2024-05-09T12:25:31.719Z,18.63
2024-05-09T12:27:58.451Z,18.27
2024-05-09T12:30:33.241Z,17.75
2024-05-09T12:33:05.011Z,17.09
2024-05-09T12:35:31.974Z,17.23
2024-05-09T12:37:58.698Z,17.81
2024-05-09T12:40:34.307Z,18.26
2024-05-09T12:43:04.715Z,18.57
2024-05-09T12:45:31.576Z,18.20
2024-05-09T12:47:58.497Z,19.08
2024-05-09T12:50:31.705Z,19.34
2024-05-09T12:53:00.497Z,18.47
2024-05-09T12:55:28.346Z,17.50
2024-05-09T12:57:56.512Z,17.36
2024-05-09T13:00:28.247Z,17.77
2024-05-09T13:03:00.740Z,18.38
2024-05-09T13:05:28.149Z,18.45
2024-05-09T13:07:56.794Z,18.23
2024-05-09T13:10:30.772Z,18.26
2024-05-09T13:12:59.877Z,17.93
2024-05-09T13:15:26.974Z,17.97
2024-05-09T13:17:55.342Z,17.60
2024-05-09T13:20:29.537Z,17.83
2024-05-09T13:23:01.460Z,18.46
2024-05-09T13:25:28.048Z,18.55
2024-05-09T13:27:54.932Z,18.91
2024-05-09T13:30:29.298Z,19.25
2024-05-09T13:33:04.843Z,19.93
2024-05-09T13:35:32.280Z,20.73
2024-05-09T13:37:58.980Z,20.77
2024-05-09T13:40:32.683Z,20.99
2024-05-09T13:43:02.055Z,21.67
2024-05-09T13:45:28.985Z,21.39
2024-05-09T13:47:55.930Z,21.11
2024-05-09T13:50:31.118Z,19.91
2024-05-09T13:53:01.728Z,19.94
2024-05-09T13:55:28.395Z,20.17
2024-05-09T13:57:55.561Z,19.64
2024-05-09T14:00:37.628Z,19.62
2024-05-09T14:03:09.205Z,18.42
2024-05-09T14:05:36.162Z,17.89
2024-05-09T14:08:03.242Z,17.73
2024-05-09T14:10:31.895Z,17.38
2024-05-09T14:12:59.331Z,17.37
2024-05-09T14:15:26.021Z,17.50
2024-05-09T14:17:52.879Z,17.83
2024-05-09T14:20:28.568Z,17.97
2024-05-09T14:22:58.457Z,17.68
2024-05-09T14:25:26.882Z,17.70
2024-05-09T14:27:54.096Z,18.42
2024-05-09T14:30:30.144Z,19.73
2024-05-09T14:33:02.835Z,20.92
2024-05-09T14:35:29.732Z,22.32
2024-05-09T14:37:56.455Z,21.79
2024-05-09T14:40:35.908Z,23.02
2024-05-09T14:43:07.926Z,22.35
2024-05-09T14:45:34.899Z,23.81
2024-05-09T14:48:02.814Z,24.68
2024-05-09T14:50:35.833Z,23.60
2024-05-09T14:53:06.502Z,22.25
2024-05-09T14:55:36.589Z,24.86
2024-05-09T14:58:05.851Z,25.24
2024-05-09T15:00:35.979Z,23.79
2024-05-09T15:03:04.312Z,21.22
2024-05-09T15:05:31.191Z,19.58
2024-05-09T15:07:57.955Z,18.73
2024-05-09T15:10:33.620Z,18.29
2024-05-09T15:13:02.669Z,18.29
2024-05-09T15:15:29.442Z,18.08
2024-05-09T15:17:56.359Z,17.57
2024-05-09T15:20:31.117Z,18.01
2024-05-09T15:23:02.052Z,17.49
2024-05-09T15:25:28.945Z,17.42
2024-05-09T15:27:55.853Z,17.91
2024-05-09T15:32:52.423Z,21.05
2024-05-09T15:35:19.125Z,21.14
2024-05-09T15:37:48.186Z,21.07
2024-05-09T15:40:21.568Z,22.23
2024-05-09T15:42:53.418Z,23.18
2024-05-09T15:45:20.227Z,23.14
2024-05-09T15:47:47.071Z,23.14
2024-05-09T15:53:27.519Z,20.06
2024-05-09T15:55:57.397Z,19.33
2024-05-09T15:58:35.374Z,19.08
2024-05-09T16:01:09.703Z,18.15
2024-05-09T16:03:42.129Z,18.25
2024-05-09T16:06:19.136Z,18.24
2024-05-09T16:08:53.135Z,17.94
2024-05-09T16:21:53.401Z,17.87
2024-05-09T16:24:20.065Z,18.05
2024-05-09T16:26:46.700Z,18.34
2024-05-09T16:29:13.609Z,18.54
2024-05-09T16:31:40.476Z,18.54
2024-05-09T16:34:07.805Z,18.44
2024-05-09T16:36:34.605Z,18.38
2024-05-09T16:39:01.193Z,18.30
2024-05-09T16:41:28.943Z,18.42
2024-05-09T16:43:57.854Z,17.92
2024-05-09T16:46:25.005Z,17.80
2024-05-09T16:48:52.035Z,18.06
2024-05-09T16:51:18.792Z,18.65
2024-05-09T16:53:45.639Z,19.03
2024-05-09T16:56:12.786Z,19.28
2024-05-09T16:58:39.729Z,19.21
2024-05-09T17:01:06.613Z,19.31
2024-05-09T17:03:34.062Z,19.32
2024-05-09T17:06:03.504Z,19.26
2024-05-09T17:08:30.065Z,18.96
2024-05-09T17:10:56.956Z,18.90
2024-05-09T17:13:23.835Z,18.95
2024-05-09T17:15:50.662Z,18.91
2024-05-09T17:18:17.898Z,18.76
2024-05-09T17:20:44.825Z,18.38
2024-05-09T17:23:14.732Z,18.65
2024-05-09T17:25:42.014Z,18.66
2024-05-09T17:28:09.520Z,18.69
2024-05-09T17:30:38.610Z,18.76
2024-05-09T17:33:07.993Z,19.02
2024-05-09T17:35:35.662Z,18.57
2024-05-09T17:38:02.506Z,18.31
2024-05-09T17:40:33.752Z,18.50
2024-05-09T17:43:04.489Z,18.23
2024-05-09T17:45:32.228Z,18.04
2024-05-09T17:48:00.014Z,17.62
2024-05-09T17:50:36.080Z,17.66
2024-05-09T17:56:02.767Z,17.07
2024-05-09T17:58:29.698Z,17.10
2024-05-09T18:00:56.522Z,17.05
2024-05-09T18:03:23.498Z,17.03
2024-05-09T18:05:50.559Z,16.98
2024-05-09T18:08:17.401Z,16.90
2024-05-09T18:10:44.628Z,16.71
2024-05-09T18:13:12.296Z,16.61
2024-05-09T18:15:39.623Z,16.41
2024-05-09T18:18:07.319Z,16.12
2024-05-09T18:20:41.968Z,15.84
2024-05-09T18:23:13.232Z,15.76
2024-05-09T18:25:40.513Z,15.68
2024-05-09T18:28:07.852Z,15.49
2024-05-09T18:30:36.529Z,15.57
2024-05-09T18:33:06.079Z,15.24
2024-05-09T18:35:34.139Z,15.13
2024-05-09T18:38:00.865Z,14.84
2024-05-09T18:40:33.160Z,14.66
2024-05-09T18:43:03.511Z,14.54
2024-05-09T18:45:30.645Z,14.36
2024-05-09T18:47:57.620Z,14.25
2024-05-09T18:50:32.401Z,14.15
2024-05-09T18:53:05.066Z,14.08
2024-05-09T18:55:31.792Z,14.07
2024-05-09T18:57:58.710Z,14.01
2024-05-09T19:00:33.543Z,13.94
2024-05-09T19:03:06.890Z,13.80
2024-05-09T19:05:35.552Z,13.87
2024-05-09T19:08:21.722Z,13.72
2024-05-09T19:10:50.052Z,13.74
2024-05-09T19:13:16.919Z,13.62
2024-05-09T19:15:44.310Z,13.63
2024-05-09T19:18:12.589Z,13.48
2024-05-09T19:20:39.937Z,13.53
2024-05-09T19:23:07.303Z,13.30
2024-05-09T19:25:34.964Z,13.25
2024-05-09T19:28:03.005Z,13.26
2024-05-09T19:30:37.856Z,13.25
2024-05-09T19:33:11.421Z,13.19
2024-05-09T19:35:39.358Z,12.89
2024-05-09T19:38:06.379Z,12.84
2024-05-09T19:40:34.683Z,12.52
2024-05-09T19:43:06.664Z,12.41
2024-05-09T19:45:34.833Z,12.34
2024-05-09T19:48:02.737Z,12.44
2024-05-09T19:50:37.498Z,12.49
2024-05-09T19:53:10.253Z,12.33
2024-05-09T19:55:37.593Z,12.29
2024-05-09T19:58:05.540Z,12.17
2024-05-09T20:00:39.005Z,12.02
2024-05-09T20:03:08.205Z,11.93
2024-05-09T20:05:35.612Z,11.97
2024-05-09T20:08:02.770Z,11.88
2024-05-09T20:10:32.749Z,11.77
2024-05-09T20:13:01.880Z,11.73
2024-05-09T20:15:28.778Z,11.77
2024-05-09T20:17:55.867Z,11.69
2024-05-09T20:20:32.607Z,11.65
2024-05-09T20:23:04.637Z,11.47
2024-05-09T20:25:31.279Z,11.51
2024-05-09T20:27:57.974Z,11.38
2024-05-09T20:30:32.063Z,11.23
2024-05-09T20:33:02.274Z,11.19
2024-05-09T20:35:31.843Z,11.14
2024-05-09T20:37:58.941Z,11.14
2024-05-09T20:40:31.771Z,11.09
2024-05-09T20:43:02.178Z,11.03
2024-05-09T20:45:28.857Z,10.97
2024-05-09T20:47:56.031Z,10.92
2024-05-09T20:50:29.271Z,10.82
2024-05-09T20:53:03.557Z,10.76
2024-05-09T20:55:30.516Z,10.74
2024-05-09T20:57:57.659Z,10.67
2024-05-09T21:00:33.813Z,10.72
2024-05-09T21:03:05.731Z,10.62
2024-05-09T21:05:32.653Z,10.55
2024-05-09T21:07:59.409Z,10.40
2024-05-09T21:10:27.271Z,10.42
2024-05-09T21:12:56.503Z,10.38
2024-05-09T21:15:23.184Z,10.36
2024-05-09T21:17:49.900Z,10.38
2024-05-09T21:20:20.631Z,10.35
2024-05-09T21:22:50.907Z,10.19
2024-05-09T21:25:17.525Z,9.99
2024-05-09T21:27:44.250Z,9.96
2024-05-09T21:30:18.615Z,9.99
2024-05-09T21:32:57.122Z,9.96
2024-05-09T21:35:23.789Z,9.70
2024-05-09T21:37:50.345Z,9.82
2024-05-09T21:40:26.989Z,9.78
2024-05-09T21:43:00.214Z,9.65
2024-05-09T21:45:26.921Z,9.68
2024-05-09T21:47:53.710Z,9.56
2024-05-09T21:50:27.555Z,9.56
2024-05-09T21:52:58.877Z,9.46
2024-05-09T21:55:25.463Z,9.42
2024-05-09T21:57:52.085Z,9.44
2024-05-09T22:00:28.614Z,9.41
2024-05-09T22:03:01.866Z,9.46
2024-05-09T22:05:28.694Z,9.43
2024-05-09T22:07:55.276Z,9.38
2024-05-09T22:10:26.545Z,9.30
2024-05-09T22:12:59.270Z,9.30
2024-05-09T22:15:25.932Z,9.25
2024-05-09T22:17:52.676Z,9.27
2024-05-09T22:20:28.614Z,9.26
2024-05-09T22:23:01.111Z,9.15
2024-05-09T22:25:30.228Z,9.15
2024-05-09T22:27:57.315Z,9.17
2024-05-09T22:30:31.817Z,8.93
2024-05-09T22:33:02.993Z,8.80
2024-05-09T22:35:29.548Z,8.78
2024-05-09T22:37:56.099Z,8.79
2024-05-09T22:40:32.165Z,8.79
2024-05-09T22:43:06.665Z,8.79
2024-05-09T22:45:33.322Z,8.73
2024-05-09T22:48:00.144Z,8.64
2024-05-09T22:50:32.385Z,8.67
2024-05-09T22:52:59.897Z,8.61
2024-05-09T22:55:26.405Z,8.63
2024-05-09T22:57:53.055Z,8.52
2024-05-09T23:00:29.077Z,8.53
2024-05-09T23:02:59.325Z,8.51
2024-05-09T23:05:25.994Z,8.46
2024-05-09T23:07:52.591Z,8.39
2024-05-09T23:10:27.327Z,8.35
2024-05-09T23:12:58.812Z,8.31
2024-05-09T23:15:25.423Z,8.32
2024-05-09T23:17:52.218Z,8.28
2024-05-09T23:20:29.658Z,8.24
2024-05-09T23:23:03.156Z,8.29
2024-05-09T23:25:29.661Z,8.29
2024-05-09T23:27:56.243Z,8.25
2024-05-09T23:30:33.038Z,8.12
2024-05-09T23:33:04.611Z,7.99
2024-05-09T23:35:31.239Z,8.11
2024-05-09T23:37:58.942Z,8.12
2024-05-09T23:40:36.842Z,8.16
2024-05-09T23:43:06.713Z,8.01
2024-05-09T23:45:33.606Z,7.92
2024-05-09T23:48:00.519Z,7.90
2024-05-09T23:50:34.252Z,7.79
2024-05-09T23:53:04.034Z,7.63
2024-05-09T23:55:31.558Z,7.70
2024-05-09T23:57:58.519Z,7.71
